Time;durP1;ratioP1;P1;durP2;ratioP2;P2;SDS_P1;SDS_P2;PMS_P1;PMS_P2;Temp;Humidity;BMP_temperature;BMP_pressure;BME280_temperature;BME280_humidity;BME280_pressure;Samples;Min_cycle;Max_cycle;Signal;HPM_P1;HPM_P2
2021/11/21 00:00:34;;;;;;;12.47;11.10;;;;;;;4.46;100.00;97977.41;4973885;28;20210;-71
2021/11/21 00:03:02;;;;;;;12.10;10.93;;;;;;;4.49;100.00;97970.09;4970523;28;20301;-73
2021/11/21 00:05:30;;;;;;;11.90;10.73;;;;;;;4.53;100.00;97972.47;4965041;28;20229;-71
2021/11/21 00:07:58;;;;;;;13.17;11.87;;;;;;;4.46;100.00;97972.97;4979841;28;20208;-73
2021/11/21 00:10:29;;;;;;;13.03;11.83;;;;;;;4.45;100.00;97960.81;4964872;28;20212;-72
2021/11/21 00:12:59;;;;;;;11.73;10.57;;;;;;;4.47;100.00;97956.28;4958008;28;20202;-73
2021/11/21 00:15:27;;;;;;;12.67;11.40;;;;;;;4.56;100.00;97956.50;4979436;28;20237;-71
2021/11/21 00:17:56;;;;;;;12.73;11.43;;;;;;;4.46;100.00;97946.72;4968111;28;20216;-74
2021/11/21 00:20:24;;;;;;;11.47;10.23;;;;;;;4.37;100.00;97941.44;4970791;28;20233;-71
2021/11/21 00:22:52;;;;;;;12.73;11.43;;;;;;;4.39;100.00;97940.31;4976111;28;20197;-73
2021/11/21 00:25:21;;;;;;;12.80;11.47;;;;;;;4.38;100.00;97935.22;4977081;28;20237;-73
2021/11/21 00:27:50;;;;;;;12.50;11.30;;;;;;;4.33;100.00;97925.91;4944460;28;20217;-74
2021/11/21 00:30:19;;;;;;;11.00;9.87;;;;;;;4.28;100.00;97928.09;4978766;28;20202;-74
2021/11/21 00:32:48;;;;;;;12.47;11.37;;;;;;;4.25;100.00;97917.84;4954483;28;20213;-72
2021/11/21 00:35:16;;;;;;;12.13;11.03;;;;;;;4.41;100.00;97916.59;4962578;28;20233;-73
2021/11/21 00:37:44;;;;;;;13.27;11.77;;;;;;;4.39;100.00;97910.66;4975252;28;20760;-73
2021/11/21 00:40:12;;;;;;;13.80;12.50;;;;;;;4.38;100.00;97922.09;4975131;28;20295;-74
2021/11/21 00:42:40;;;;;;;14.13;12.73;;;;;;;4.22;100.00;97906.78;4944757;28;20233;-73
2021/11/21 00:45:11;;;;;;;12.80;11.60;;;;;;;4.22;100.00;97914.66;4948626;28;20221;-71
2021/11/21 00:47:41;;;;;;;12.67;11.47;;;;;;;4.31;100.00;97919.13;4972099;28;20218;-74
2021/11/21 00:50:12;;;;;;;13.43;12.03;;;;;;;4.35;100.00;97916.13;4967813;28;20209;-72
2021/11/21 00:52:40;;;;;;;13.43;12.13;;;;;;;4.22;100.00;97912.03;4978012;28;20436;-74
2021/11/21 00:55:12;;;;;;;13.93;11.77;;;;;;;4.17;100.00;97921.13;4977023;28;20240;-72
2021/11/21 00:57:41;;;;;;;13.30;12.10;;;;;;;4.06;100.00;97913.25;4974336;28;20210;-73
2021/11/21 01:00:11;;;;;;;12.10;11.00;;;;;;;4.05;100.00;97917.69;4951102;28;20264;-72
2021/11/21 01:02:42;;;;;;;13.57;12.37;;;;;;;4.04;100.00;97915.19;4969158;28;20218;-72
2021/11/21 01:05:11;;;;;;;12.20;11.07;;;;;;;4.07;100.00;97919.34;4974171;28;20294;-72
2021/11/21 01:07:40;;;;;;;12.20;10.90;;;;;;;4.11;100.00;97915.53;4976300;28;20221;-74
2021/11/21 01:10:11;;;;;;;13.60;12.30;;;;;;;4.10;100.00;97909.44;4979086;28;20236;-72
2021/11/21 01:12:40;;;;;;;11.77;10.67;;;;;;;4.09;100.00;97909.56;4963247;28;20223;-72
2021/11/21 01:15:10;;;;;;;14.73;10.87;;;;;;;4.10;100.00;97913.88;4972450;28;20348;-72
2021/11/21 01:17:38;;;;;;;13.00;11.80;;;;;;;4.14;100.00;97913.47;4933878;28;20685;-72
2021/11/21 01:20:09;;;;;;;12.17;10.97;;;;;;;3.99;100.00;97923.44;4977498;28;20991;-73
2021/11/21 01:22:38;;;;;;;12.90;11.77;;;;;;;4.08;100.00;97910.53;4975025;28;20209;-73
2021/11/21 01:25:08;;;;;;;13.70;12.30;;;;;;;3.92;100.00;97909.13;4978828;28;20248;-73
2021/11/21 01:27:36;;;;;;;13.00;11.67;;;;;;;3.92;100.00;97906.50;4970960;28;20210;-73
2021/11/21 01:30:06;;;;;;;13.10;11.87;;;;;;;4.02;100.00;97886.47;4965018;28;20205;-74
2021/11/21 01:32:34;;;;;;;13.33;11.93;;;;;;;4.10;100.00;97880.59;4943059;28;20715;-71
2021/11/21 01:35:04;;;;;;;12.50;11.30;;;;;;;3.93;100.00;97887.19;4975116;28;20226;-74
2021/11/21 01:37:33;;;;;;;13.30;11.97;;;;;;;3.94;100.00;97890.66;4973065;28;20220;-74
2021/11/21 01:40:02;;;;;;;13.20;11.90;;;;;;;3.99;100.00;97885.88;4977078;28;20209;-72
2021/11/21 01:42:30;;;;;;;13.53;12.23;;;;;;;3.96;100.00;97884.31;4977391;28;20585;-74
2021/11/21 01:44:58;;;;;;;13.93;12.43;;;;;;;3.93;100.00;97878.53;4976415;28;20228;-73
2021/11/21 01:47:26;;;;;;;12.40;11.17;;;;;;;3.93;100.00;97868.84;4947642;28;20969;-73
2021/11/21 01:49:54;;;;;;;14.47;12.20;;;;;;;3.90;100.00;97869.94;4976296;28;21032;-74
2021/11/21 01:52:22;;;;;;;14.20;12.80;;;;;;;3.90;100.00;97875.19;4973842;28;20208;-73
2021/11/21 01:54:52;;;;;;;13.20;11.90;;;;;;;3.90;100.00;97866.47;4973589;28;20229;-71
2021/11/21 01:57:20;;;;;;;14.47;12.20;;;;;;;3.79;100.00;97879.63;4977986;28;20202;-74
2021/11/21 01:59:48;;;;;;;13.37;11.43;;;;;;;3.76;100.00;97876.31;4975147;28;20682;-71
2021/11/21 02:02:16;;;;;;;14.03;12.47;;;;;;;3.91;100.00;97878.63;4945981;28;20218;-73
2021/11/21 02:04:45;;;;;;;13.60;12.03;;;;;;;3.95;100.00;97869.56;4975908;28;20771;-72
2021/11/21 02:07:13;;;;;;;14.63;13.07;;;;;;;3.94;100.00;97870.50;4981954;28;20656;-73
2021/11/21 02:09:42;;;;;;;12.57;11.27;;;;;;;3.84;100.00;97862.59;4980974;28;20229;-72
2021/11/21 02:12:11;;;;;;;13.63;12.23;;;;;;;3.83;100.00;97860.91;4986863;28;20202;-74
2021/11/21 02:14:39;;;;;;;14.83;12.57;;;;;;;3.80;100.00;97873.44;4982308;28;20672;-72
2021/11/21 02:17:07;;;;;;;14.83;12.83;;;;;;;3.80;100.00;97866.41;4948043;28;22125;-71
2021/11/21 02:19:35;;;;;;;16.53;12.57;;;;;;;3.78;100.00;97851.75;4979044;28;20213;-72
2021/11/21 02:22:05;;;;;;;13.40;12.00;;;;;;;3.81;100.00;97848.88;4980897;28;20193;-74
2021/11/21 02:24:33;;;;;;;14.60;12.57;;;;;;;3.74;100.00;97832.81;4979086;28;20340;-72
2021/11/21 02:27:02;;;;;;;14.30;12.50;;;;;;;3.80;100.00;97831.50;4979464;28;20204;-74
2021/11/21 02:29:30;;;;;;;19.33;12.20;;;;;;;3.78;100.00;97826.34;4986121;28;20224;-74
2021/11/21 02:31:58;;;;;;;14.10;12.60;;;;;;;3.81;100.00;97814.81;4977855;28;20209;-73
2021/11/21 02:34:27;;;;;;;16.30;13.77;;;;;;;3.79;100.00;97817.56;4949372;28;20241;-75
2021/11/21 02:36:55;;;;;;;13.47;12.00;;;;;;;3.78;100.00;97815.06;4973176;28;20197;-74
2021/11/21 02:39:24;;;;;;;13.57;12.03;;;;;;;3.82;100.00;97811.22;4971775;28;20202;-74
2021/11/21 02:41:52;;;;;;;13.40;11.37;;;;;;;3.67;100.00;97803.66;4977168;28;20402;-74
2021/11/21 02:44:20;;;;;;;14.13;11.70;;;;;;;3.71;100.00;97806.84;4974073;28;20226;-74
2021/11/21 02:46:48;;;;;;;13.73;12.33;;;;;;;3.66;100.00;97807.25;4982853;28;20206;-73
2021/11/21 02:49:16;;;;;;;14.23;12.80;;;;;;;3.80;100.00;97795.63;4940990;28;20320;-73
2021/11/21 02:51:45;;;;;;;14.63;13.17;;;;;;;3.67;100.00;97802.81;4970253;28;20209;-72
2021/11/21 02:54:13;;;;;;;14.27;12.20;;;;;;;3.68;100.00;97799.25;4956300;28;20233;-73
2021/11/21 02:56:43;;;;;;;13.00;11.73;;;;;;;3.67;100.00;97794.97;4983275;28;20437;-71
2021/11/21 02:59:11;;;;;;;15.67;13.07;;;;;;;3.66;100.00;97785.44;4974193;28;20206;-73
2021/11/21 03:01:39;;;;;;;15.07;12.23;;;;;;;3.68;100.00;97781.75;4978507;28;20213;-73
2021/11/21 03:04:08;;;;;;;14.00;12.33;;;;;;;3.74;100.00;97775.16;4974690;28;20234;-73
2021/11/21 03:06:36;;;;;;;15.77;13.80;;;;;;;3.78;100.00;97767.88;4984103;28;20208;-73
2021/11/21 03:09:04;;;;;;;16.77;13.83;;;;;;;3.72;100.00;97762.19;4941141;28;20214;-74
2021/11/21 03:11:34;;;;;;;16.53;13.60;;;;;;;3.73;100.00;97757.75;4977239;28;20789;-74
2021/11/21 03:14:05;;;;;;;16.60;13.40;;;;;;;3.68;100.00;97750.28;4975462;28;20222;-73
2021/11/21 03:16:33;;;;;;;19.17;14.23;;;;;;;3.54;100.00;97748.81;4977973;28;20803;-73
2021/11/21 03:19:01;;;;;;;17.83;14.40;;;;;;;3.55;100.00;97742.59;4970606;28;20938;-73
2021/11/21 03:21:29;;;;;;;16.30;12.27;;;;;;;3.58;100.00;97739.72;4980808;28;20309;-73
2021/11/21 03:23:57;;;;;;;17.13;13.47;;;;;;;3.54;100.00;97734.84;4941228;28;20217;-71
2021/11/21 03:26:28;;;;;;;16.50;13.70;;;;;;;3.45;100.00;97739.09;4987159;28;20206;-73
2021/11/21 03:28:56;;;;;;;16.93;13.37;;;;;;;3.43;100.00;97739.19;4979000;28;20208;-71
2021/11/21 03:31:32;;;;;;;17.40;13.57;;;;;;;3.49;100.00;97737.88;4979268;28;20212;-74
2021/11/21 03:34:00;;;;;;;19.00;13.87;;;;;;;3.36;100.00;97738.03;4975677;28;20681;-71
2021/11/21 03:36:29;;;;;;;16.03;12.27;;;;;;;3.34;100.00;97739.94;4982529;28;20231;-73
2021/11/21 03:38:57;;;;;;;17.37;13.63;;;;;;;3.29;100.00;97742.09;4941464;28;20220;-72
2021/11/21 03:41:26;;;;;;;19.33;12.80;;;;;;;3.24;100.00;97739.03;4980776;28;20209;-73
2021/11/21 03:43:54;;;;;;;17.50;12.77;;;;;;;3.17;100.00;97741.31;4981562;28;20221;-71
2021/11/21 03:46:22;;;;;;;16.50;12.60;;;;;;;3.23;100.00;97743.44;4977267;28;20206;-74
2021/11/21 03:48:52;;;;;;;16.40;12.80;;;;;;;3.17;100.00;97739.50;4971237;28;20268;-72
2021/11/21 03:51:20;;;;;;;18.87;13.23;;;;;;;3.25;100.00;97741.50;4981222;28;20210;-74
2021/11/21 03:53:48;;;;;;;16.80;13.13;;;;;;;3.31;100.00;97740.19;4963776;28;20216;-71
2021/11/21 03:56:17;;;;;;;19.70;13.67;;;;;;;3.23;100.00;97740.81;4967949;28;20277;-73
2021/11/21 03:58:45;;;;;;;16.37;13.73;;;;;;;3.11;100.00;97734.75;4981032;28;20280;-71
2021/11/21 04:01:13;;;;;;;19.37;13.87;;;;;;;3.17;100.00;97729.03;4977376;28;20217;-73
2021/11/21 04:03:42;;;;;;;21.60;15.17;;;;;;;3.18;100.00;97729.88;4974925;28;20238;-73
2021/11/21 04:06:12;;;;;;;19.43;13.73;;;;;;;3.20;100.00;97720.09;4975405;28;20193;-73
2021/11/21 04:08:42;;;;;;;18.23;13.03;;;;;;;3.25;100.00;97723.19;4980271;28;20695;-73
2021/11/21 04:11:10;;;;;;;17.27;13.77;;;;;;;3.22;100.00;97722.59;4948617;28;20209;-71
2021/11/21 04:13:39;;;;;;;18.40;13.47;;;;;;;3.08;100.00;97715.88;4978608;28;20220;-72
2021/11/21 04:16:07;;;;;;;17.57;13.27;;;;;;;2.99;100.00;97710.38;4974458;28;20991;-74
2021/11/21 04:18:35;;;;;;;17.03;13.20;;;;;;;2.99;100.00;97701.72;4975511;28;20230;-73
2021/11/21 04:21:03;;;;;;;20.97;13.77;;;;;;;2.94;100.00;97704.69;4974803;28;20201;-74
2021/11/21 04:23:33;;;;;;;14.90;12.30;;;;;;;2.86;100.00;97694.00;4974755;28;20283;-71
2021/11/21 04:26:01;;;;;;;17.43;12.20;;;;;;;2.80;100.00;97705.78;4937503;28;20855;-73
2021/11/21 04:28:29;;;;;;;16.63;11.50;;;;;;;2.73;100.00;97702.00;4973448;28;20210;-72
2021/11/21 04:30:57;;;;;;;13.13;10.07;;;;;;;2.84;100.00;97699.38;4973682;28;20201;-72
2021/11/21 04:33:25;;;;;;;11.57;9.43;;;;;;;2.83;100.00;97696.88;4960309;28;20256;-71
2021/11/21 04:35:54;;;;;;;18.17;11.13;;;;;;;2.85;100.00;97690.56;4967453;28;20233;-74
2021/11/21 04:38:24;;;;;;;15.40;10.03;;;;;;;2.73;100.00;97704.63;4976666;28;20618;-72
2021/11/21 04:40:54;;;;;;;15.23;11.17;;;;;;;2.77;100.00;97707.84;4938125;28;20822;-74
2021/11/21 04:43:22;;;;;;;12.90;9.83;;;;;;;2.66;100.00;97698.22;4972973;28;20206;-73
2021/11/21 04:45:53;;;;;;;12.33;9.93;;;;;;;2.66;100.00;97699.06;4971584;28;20370;-72
2021/11/21 04:48:21;;;;;;;13.90;10.37;;;;;;;2.64;100.00;97692.28;4977470;28;21018;-73
2021/11/21 04:50:49;;;;;;;18.17;12.07;;;;;;;2.56;100.00;97685.88;4971475;28;20198;-77
2021/11/21 04:53:17;;;;;;;14.23;10.93;;;;;;;2.55;100.00;97676.34;4974912;28;20228;-73
2021/11/21 04:55:45;;;;;;;14.20;10.23;;;;;;;2.57;100.00;97671.84;4967444;28;20819;-74
2021/11/21 04:58:15;;;;;;;14.60;10.70;;;;;;;2.58;100.00;97673.50;4956017;28;20221;-73
2021/11/21 05:00:44;;;;;;;14.33;11.90;;;;;;;2.60;100.00;97671.59;4923950;28;20225;-72
2021/11/21 05:03:12;;;;;;;16.20;11.87;;;;;;;2.66;100.00;97672.91;4980754;28;20613;-71
2021/11/21 05:05:40;;;;;;;16.23;11.43;;;;;;;2.74;100.00;97675.72;4974096;28;20230;-69
2021/11/21 05:08:09;;;;;;;16.70;11.27;;;;;;;2.71;100.00;97665.50;4954915;28;20408;-68
2021/11/21 05:10:38;;;;;;;12.73;10.03;;;;;;;2.96;100.00;97662.69;4972462;28;21442;-68
2021/11/21 05:13:06;;;;;;;14.23;10.93;;;;;;;2.87;100.00;97659.88;4949870;28;20689;-68
2021/11/21 05:15:35;;;;;;;16.53;11.23;;;;;;;2.89;100.00;97657.13;4930719;28;20441;-70
2021/11/21 05:18:03;;;;;;;15.20;10.60;;;;;;;2.88;100.00;97668.53;4959721;28;20252;-69
2021/11/21 05:20:31;;;;;;;14.30;10.23;;;;;;;2.77;100.00;97665.97;4948538;28;20210;-69
2021/11/21 05:22:59;;;;;;;13.47;10.13;;;;;;;2.79;100.00;97659.63;4952298;28;20211;-72
2021/11/21 05:25:27;;;;;;;15.53;11.17;;;;;;;2.83;100.00;97655.81;4971154;28;20835;-70
2021/11/21 05:27:55;;;;;;;13.60;10.70;;;;;;;2.86;100.00;97652.97;4971577;28;20221;-70
2021/11/21 05:30:24;;;;;;;12.50;10.73;;;;;;;2.87;100.00;97643.31;4943213;28;20733;-70
2021/11/21 05:32:53;;;;;;;12.33;9.50;;;;;;;2.84;100.00;97639.19;4964955;28;20217;-70
2021/11/21 05:35:21;;;;;;;12.23;10.50;;;;;;;2.77;100.00;97640.63;4971099;28;20608;-70
2021/11/21 05:37:50;;;;;;;14.27;11.30;;;;;;;2.78;100.00;97633.59;4948787;28;20357;-71
2021/11/21 05:40:19;;;;;;;11.53;9.63;;;;;;;2.68;100.00;97644.81;4972183;28;20209;-69
2021/11/21 05:42:48;;;;;;;11.53;9.23;;;;;;;2.66;100.00;97649.34;4974560;28;20626;-71
2021/11/21 05:45:16;;;;;;;13.40;9.93;;;;;;;2.66;100.00;97646.72;4945843;28;20237;-70
2021/11/21 05:47:44;;;;;;;12.87;9.23;;;;;;;2.63;100.00;97653.97;4960694;28;20249;-71
2021/11/21 05:50:14;;;;;;;11.57;8.83;;;;;;;2.62;100.00;97645.28;4972316;28;20524;-69
2021/11/21 05:52:43;;;;;;;9.27;8.27;;;;;;;2.59;100.00;97650.75;4953872;28;20214;-71
2021/11/21 05:55:12;;;;;;;10.73;8.43;;;;;;;2.58;100.00;97649.94;4969201;28;20236;-69
2021/11/21 05:57:40;;;;;;;11.67;8.30;;;;;;;2.50;100.00;97651.50;4974677;28;20234;-70
2021/11/21 06:00:11;;;;;;;11.30;8.97;;;;;;;2.52;100.00;97639.97;4961134;28;20217;-68
2021/11/21 06:02:39;;;;;;;9.47;7.33;;;;;;;2.51;100.00;97640.94;4959339;28;20235;-70
2021/11/21 06:05:09;;;;;;;10.37;8.90;;;;;;;2.56;100.00;97645.78;4974265;28;20222;-68
2021/11/21 06:07:39;;;;;;;11.37;8.80;;;;;;;2.44;100.00;97648.41;4963193;28;20539;-70
2021/11/21 06:10:08;;;;;;;11.00;7.07;;;;;;;2.41;100.00;97646.06;4968847;28;20209;-68
2021/11/21 06:12:37;;;;;;;9.63;8.50;;;;;;;2.43;100.00;97646.75;4970269;28;20426;-69
2021/11/21 06:15:07;;;;;;;9.77;7.60;;;;;;;2.48;100.00;97648.19;4959637;28;20411;-69
2021/11/21 06:17:35;;;;;;;8.90;7.07;;;;;;;2.49;100.00;97649.84;4949671;28;20544;-70
2021/11/21 06:20:04;;;;;;;10.83;7.30;;;;;;;2.37;100.00;97651.63;4970408;28;20284;-69
2021/11/21 06:22:32;;;;;;;9.00;7.33;;;;;;;2.39;100.00;97652.34;4971429;28;20686;-70
2021/11/21 06:25:02;;;;;;;10.70;8.03;;;;;;;2.34;100.00;97657.94;4965376;28;20225;-70
2021/11/21 06:27:30;;;;;;;10.00;7.50;;;;;;;2.37;100.00;97652.47;4973959;28;20579;-68
2021/11/21 06:29:58;;;;;;;9.23;8.20;;;;;;;2.44;100.00;97652.81;4975121;28;20213;-70
2021/11/21 06:32:26;;;;;;;8.97;7.17;;;;;;;2.48;100.00;97643.78;4942660;28;20234;-69
2021/11/21 06:34:54;;;;;;;7.57;6.77;;;;;;;2.45;100.00;97637.00;4965885;28;20240;-69
2021/11/21 06:37:22;;;;;;;6.50;5.87;;;;;;;2.37;100.00;97641.16;4968075;28;20229;-70
2021/11/21 06:39:51;;;;;;;8.40;7.23;;;;;;;2.30;100.00;97641.66;4964159;28;20205;-70
2021/11/21 06:42:20;;;;;;;6.97;6.23;;;;;;;2.23;100.00;97643.09;4977660;28;20217;-69
2021/11/21 06:44:48;;;;;;;7.60;6.80;;;;;;;2.25;100.00;97638.56;4972255;28;20229;-69
2021/11/21 06:47:18;;;;;;;8.97;6.83;;;;;;;2.22;100.00;97636.22;4942024;28;20205;-71
2021/11/21 06:49:46;;;;;;;9.60;6.70;;;;;;;2.24;100.00;97636.91;4967627;28;20612;-71
2021/11/21 06:52:15;;;;;;;7.43;6.67;;;;;;;2.32;100.00;97636.31;4977344;28;20210;-70
2021/11/21 06:54:43;;;;;;;8.53;7.27;;;;;;;2.34;100.00;97636.19;4948541;28;20486;-70
2021/11/21 06:57:11;;;;;;;10.10;6.70;;;;;;;2.25;100.00;97632.50;4950438;28;20229;-70
2021/11/21 06:59:41;;;;;;;9.73;6.77;;;;;;;2.21;100.00;97646.78;4976429;28;20213;-69
2021/11/21 07:02:09;;;;;;;8.37;7.50;;;;;;;2.20;100.00;97639.88;4930626;28;25634;-71
2021/11/21 07:04:37;;;;;;;8.60;6.93;;;;;;;2.14;100.00;97652.47;4967757;28;20329;-71
2021/11/21 07:07:08;;;;;;;8.73;6.70;;;;;;;2.13;100.00;97652.63;4942595;28;20931;-69
2021/11/21 07:09:37;;;;;;;7.37;6.53;;;;;;;2.20;100.00;97650.34;4976439;28;20209;-70
2021/11/21 07:12:07;;;;;;;7.93;6.77;;;;;;;2.29;100.00;97653.06;4973851;28;20218;-69
2021/11/21 07:14:36;;;;;;;8.63;7.80;;;;;;;2.32;100.00;97657.25;4970030;28;20507;-71
2021/11/21 07:17:06;;;;;;;7.90;6.70;;;;;;;2.20;100.00;97653.78;4977311;28;20201;-70
2021/11/21 07:19:34;;;;;;;8.80;7.90;;;;;;;2.20;100.00;97652.94;4964717;28;20218;-71
2021/11/21 07:22:02;;;;;;;10.70;7.83;;;;;;;2.20;100.00;97645.94;4943787;28;20225;-70
2021/11/21 07:24:32;;;;;;;9.60;8.20;;;;;;;2.18;100.00;97642.63;4979545;28;20221;-71
2021/11/21 07:27:00;;;;;;;9.70;7.40;;;;;;;2.22;100.00;97651.03;4980756;28;20205;-70
2021/11/21 07:29:29;;;;;;;11.57;7.90;;;;;;;2.24;100.00;97650.00;4978427;28;20202;-72
2021/11/21 07:31:58;;;;;;;10.90;7.90;;;;;;;2.25;100.00;97637.72;4976189;28;20206;-69
2021/11/21 07:34:29;;;;;;;10.57;8.23;;;;;;;2.32;100.00;97638.94;4975915;28;20514;-71
2021/11/21 07:36:58;;;;;;;9.93;7.30;;;;;;;2.33;100.00;97637.97;4951469;28;20216;-69
2021/11/21 07:39:26;;;;;;;10.73;8.40;;;;;;;2.35;100.00;97633.47;4965752;28;20512;-71
2021/11/21 07:41:55;;;;;;;8.17;6.17;;;;;;;2.40;100.00;97636.53;4982471;28;20220;-69
2021/11/21 07:44:23;;;;;;;10.10;7.67;;;;;;;2.48;100.00;97638.56;4975348;28;20737;-70
2021/11/21 07:46:51;;;;;;;13.10;8.67;;;;;;;2.50;100.00;97631.41;4971551;28;20228;-69
2021/11/21 07:49:20;;;;;;;10.67;7.93;;;;;;;2.42;100.00;97641.63;4973697;28;20264;-71
2021/11/21 07:51:49;;;;;;;8.23;7.33;;;;;;;2.40;100.00;97638.31;4974182;28;20668;-70
2021/11/21 07:54:17;;;;;;;9.30;7.00;;;;;;;2.50;100.00;97646.28;4950619;28;20228;-71
2021/11/21 07:56:45;;;;;;;8.53;7.57;;;;;;;2.53;100.00;97644.25;4974174;28;20217;-71
2021/11/21 07:59:13;;;;;;;11.10;8.27;;;;;;;2.71;100.00;97647.19;4972488;28;20221;-71
2021/11/21 08:01:42;;;;;;;7.83;7.03;;;;;;;2.50;100.00;97647.13;4977631;28;20567;-69
2021/11/21 08:04:11;;;;;;;10.37;7.60;;;;;;;2.50;100.00;97641.88;4972066;28;20226;-71
2021/11/21 08:06:39;;;;;;;10.17;7.83;;;;;;;2.55;100.00;97644.97;4961506;28;20245;-70
2021/11/21 08:09:08;;;;;;;9.07;7.30;;;;;;;2.59;100.00;97640.31;4942406;28;21825;-70
2021/11/21 08:11:37;;;;;;;9.73;8.33;;;;;;;2.67;100.00;97635.31;4973823;28;20206;-71
2021/11/21 08:14:05;;;;;;;9.27;8.00;;;;;;;2.68;100.00;97630.88;4974749;28;20355;-71
2021/11/21 08:16:33;;;;;;;11.73;8.00;;;;;;;2.65;100.00;97642.44;4973335;28;20210;-70
2021/11/21 08:19:01;;;;;;;8.13;7.33;;;;;;;2.63;100.00;97649.56;4969357;28;20264;-69
2021/11/21 08:21:32;;;;;;;9.33;7.33;;;;;;;2.71;100.00;97648.97;4975370;28;20217;-71
2021/11/21 08:24:00;;;;;;;9.60;8.57;;;;;;;2.87;100.00;97644.19;4960647;28;20969;-70
2021/11/21 08:26:30;;;;;;;9.97;8.40;;;;;;;2.86;100.00;97652.13;4946606;28;20213;-71
2021/11/21 08:28:58;;;;;;;11.03;8.23;;;;;;;2.83;100.00;97641.91;4978469;28;20253;-70
2021/11/21 08:31:26;;;;;;;11.03;8.47;;;;;;;2.91;100.00;97642.13;4975477;28;20565;-71
2021/11/21 08:33:54;;;;;;;11.43;8.57;;;;;;;2.80;100.00;97634.31;4973785;28;20288;-70
2021/11/21 08:36:22;;;;;;;10.63;8.00;;;;;;;2.79;100.00;97636.09;4972164;28;20201;-71
2021/11/21 08:38:50;;;;;;;11.03;9.00;;;;;;;2.84;100.00;97636.56;4963421;28;20712;-70
2021/11/21 08:41:18;;;;;;;10.10;8.13;;;;;;;2.90;100.00;97632.59;4931283;28;25189;-70
2021/11/21 08:43:48;;;;;;;10.73;8.57;;;;;;;2.92;100.00;97625.47;4988348;28;20239;-71
2021/11/21 08:46:16;;;;;;;9.80;8.60;;;;;;;2.87;100.00;97625.84;4976709;28;20262;-70
2021/11/21 08:48:44;;;;;;;10.77;9.20;;;;;;;2.90;100.00;97624.75;4972363;28;20201;-71
2021/11/21 08:51:12;;;;;;;10.90;9.30;;;;;;;2.96;100.00;97623.44;4975056;28;20213;-70
2021/11/21 08:53:44;;;;;;;11.17;9.73;;;;;;;3.01;100.00;97635.19;4968109;28;20322;-70
2021/11/21 08:56:13;;;;;;;11.13;9.93;;;;;;;3.11;100.00;97634.44;4962416;28;20228;-70
2021/11/21 08:58:41;;;;;;;10.27;8.47;;;;;;;3.02;100.00;97636.03;4964048;28;20332;-71
2021/11/21 09:01:12;;;;;;;9.80;8.27;;;;;;;2.92;100.00;97632.50;4971505;28;20212;-70
2021/11/21 09:03:40;;;;;;;11.00;8.87;;;;;;;2.96;100.00;97634.72;4963921;28;20299;-70
2021/11/21 09:06:09;;;;;;;11.53;9.27;;;;;;;2.92;100.00;97630.69;4973875;28;20213;-71
2021/11/21 09:08:37;;;;;;;10.53;9.43;;;;;;;2.96;100.00;97632.09;4961578;28;20439;-72
2021/11/21 09:11:05;;;;;;;11.23;8.87;;;;;;;2.98;100.00;97634.63;4973469;28;20217;-73
2021/11/21 09:13:33;;;;;;;9.90;7.83;;;;;;;3.00;100.00;97632.69;4933587;28;20710;-71
2021/11/21 09:16:02;;;;;;;10.37;8.50;;;;;;;3.06;100.00;97637.44;4962156;28;20237;-70
2021/11/21 09:18:32;;;;;;;11.50;8.93;;;;;;;3.15;100.00;97634.06;4972272;28;20520;-70
2021/11/21 09:21:00;;;;;;;13.17;9.47;;;;;;;3.15;100.00;97630.63;4967340;28;20202;-71
2021/11/21 09:23:29;;;;;;;16.97;9.60;;;;;;;3.36;100.00;97621.94;4970486;28;20610;-71
2021/11/21 09:25:57;;;;;;;13.00;9.67;;;;;;;3.29;100.00;97622.44;4968211;28;20520;-72
2021/11/21 09:28:25;;;;;;;11.80;9.07;;;;;;;3.30;100.00;97623.28;4970817;28;20206;-70
2021/11/21 09:30:55;;;;;;;13.13;9.10;;;;;;;3.31;100.00;97630.19;4950779;28;20223;-72
2021/11/21 09:33:24;;;;;;;11.87;9.80;;;;;;;3.45;100.00;97626.44;4970689;28;20231;-70
2021/11/21 09:35:53;;;;;;;14.43;10.00;;;;;;;3.27;100.00;97624.34;4970244;28;20228;-72
2021/11/21 09:38:21;;;;;;;10.30;8.47;;;;;;;3.35;100.00;97625.50;4973958;28;20202;-71
2021/11/21 09:40:50;;;;;;;12.13;9.47;;;;;;;3.31;100.00;97625.75;4964165;28;20336;-71
2021/11/21 09:43:18;;;;;;;14.17;9.70;;;;;;;3.46;100.00;97626.28;4974324;28;20206;-71
2021/11/21 09:45:46;;;;;;;11.33;8.60;;;;;;;3.30;100.00;97628.53;4941678;28;20237;-71
2021/11/21 09:48:15;;;;;;;9.70;8.40;;;;;;;3.44;100.00;97633.44;4974945;28;20209;-72
2021/11/21 09:50:44;;;;;;;10.83;9.10;;;;;;;3.41;100.00;97627.63;4970502;28;20201;-71
2021/11/21 09:53:15;;;;;;;12.60;8.63;;;;;;;3.43;100.00;97621.31;4975501;28;20684;-71
2021/11/21 09:55:43;;;;;;;12.20;9.70;;;;;;;3.45;100.00;97624.63;4965112;28;20637;-72
2021/11/21 09:58:11;;;;;;;12.60;8.20;;;;;;;3.56;100.00;97617.66;4973322;28;20224;-71
2021/11/21 10:00:40;;;;;;;10.80;8.47;;;;;;;3.83;100.00;97614.50;4941980;28;20610;-70
2021/11/21 10:03:09;;;;;;;10.57;9.40;;;;;;;3.65;100.00;97610.81;4971491;28;20268;-73
2021/11/21 10:05:40;;;;;;;12.53;9.37;;;;;;;3.61;100.00;97612.88;4971921;28;20257;-70
2021/11/21 10:08:11;;;;;;;12.17;9.47;;;;;;;3.51;100.00;97609.34;4972137;28;20221;-71
2021/11/21 10:10:43;;;;;;;10.80;9.70;;;;;;;3.51;100.00;97615.44;4960772;28;20233;-71
2021/11/21 10:13:27;;;;;;;11.50;9.47;;;;;;;3.56;100.00;97601.94;4974319;28;20210;-72
2021/11/21 10:15:55;;;;;;;11.80;9.27;;;;;;;3.37;100.00;97595.63;4929120;28;20221;-71
2021/11/21 10:18:23;;;;;;;10.97;9.73;;;;;;;3.36;100.00;97590.50;4970638;28;20694;-71
2021/11/21 10:20:51;;;;;;;12.03;9.97;;;;;;;3.46;100.00;97588.78;4964007;28;20225;-72
2021/11/21 10:23:21;;;;;;;10.63;9.47;;;;;;;3.55;100.00;97589.78;4980524;28;20477;-70
2021/11/21 10:25:55;;;;;;;11.10;9.17;;;;;;;3.44;100.00;97590.72;4971232;28;20220;-71
2021/11/21 10:28:25;;;;;;;13.10;9.77;;;;;;;3.43;100.00;97591.66;4970306;28;20209;-70
2021/11/21 10:31:18;;;;;;;11.47;9.17;;;;;;;3.60;100.00;97585.81;4941762;28;20229;-72
2021/11/21 10:33:49;;;;;;;20.33;11.30;;;;;;;3.66;100.00;97581.03;4965996;28;20663;-71
2021/11/21 10:36:19;;;;;;;12.37;9.70;;;;;;;3.70;100.00;97583.25;4965615;28;20210;-71
2021/11/21 10:38:51;;;;;;;12.77;9.40;;;;;;;3.59;100.00;97578.94;4978697;28;20586;-70
2021/11/21 10:41:23;;;;;;;11.50;8.67;;;;;;;3.55;100.00;97574.91;4958616;28;20757;-70
2021/11/21 10:43:59;;;;;;;8.93;7.77;;;;;;;3.47;100.00;97572.94;4980839;28;20221;-72
2021/11/21 10:46:33;;;;;;;10.30;8.87;;;;;;;3.68;100.00;97571.22;4942619;28;20214;-71
2021/11/21 10:49:23;;;;;;;13.53;10.40;;;;;;;3.83;100.00;97569.94;4979657;28;20217;-72
2021/11/21 10:52:07;;;;;;;12.40;9.83;;;;;;;3.81;100.00;97563.16;4963657;28;20213;-72
2021/11/21 10:54:37;;;;;;;11.50;8.47;;;;;;;3.88;100.00;97562.50;4971668;28;20241;-73
2021/11/21 10:57:08;;;;;;;9.43;7.57;;;;;;;3.93;100.00;97553.41;4948327;28;21109;-72
2021/11/21 10:59:39;;;;;;;8.87;7.50;;;;;;;3.91;100.00;97553.53;4977456;28;20229;-72
2021/11/21 11:02:12;;;;;;;8.67;7.77;;;;;;;3.89;100.00;97550.22;4945075;28;21943;-71
2021/11/21 11:05:00;;;;;;;9.80;8.80;;;;;;;3.80;100.00;97551.00;4974931;28;20237;-71
2021/11/21 11:07:29;;;;;;;8.97;8.10;;;;;;;3.91;100.00;97541.28;4966770;28;20322;-73
2021/11/21 11:09:57;;;;;;;8.30;7.47;;;;;;;3.88;100.00;97548.56;4973878;28;20418;-72
2021/11/21 11:12:27;;;;;;;11.07;8.47;;;;;;;4.04;100.00;97542.81;4968566;28;20224;-72
2021/11/21 11:14:56;;;;;;;9.60;8.60;;;;;;;4.03;100.00;97536.75;4971717;28;20229;-71
2021/11/21 11:17:26;;;;;;;11.17;8.20;;;;;;;4.06;100.00;97540.88;4952753;28;20214;-72
2021/11/21 11:19:57;;;;;;;9.10;7.37;;;;;;;3.92;100.00;97544.69;4974644;28;20236;-71
2021/11/21 11:22:26;;;;;;;9.53;8.60;;;;;;;3.79;100.00;97546.72;4941767;28;20316;-72
2021/11/21 11:24:56;;;;;;;11.07;8.70;;;;;;;3.70;100.00;97540.47;4975355;28;20278;-71
2021/11/21 11:27:33;;;;;;;10.67;8.67;;;;;;;3.66;100.00;97534.69;4953339;28;20214;-71
2021/11/21 11:30:01;;;;;;;10.67;8.20;;;;;;;3.87;100.00;97532.00;4981419;28;20201;-72